createdAt,value
2019-03-29T04:10:11.850Z,0.00
2019-03-29T04:11:11.825Z,0.00
2019-03-29T04:12:11.894Z,0.00
2019-03-29T04:13:11.801Z,0.00
2019-03-29T04:14:11.841Z,0.00
2019-03-29T04:15:11.801Z,0.00
2019-03-29T04:16:11.777Z,0.00
2019-03-29T04:17:11.767Z,0.00
2019-03-29T04:18:15.423Z,0.00
2019-03-29T04:19:11.749Z,0.00
2019-03-29T04:20:11.758Z,0.00
2019-03-29T04:21:11.716Z,0.00
2019-03-29T04:22:11.723Z,0.00
2019-03-29T04:23:11.730Z,0.00
2019-03-29T04:24:11.683Z,0.00
2019-03-29T04:25:11.692Z,0.00
2019-03-29T04:26:11.667Z,0.00
2019-03-29T04:27:11.661Z,0.00
2019-03-29T04:28:11.645Z,0.00
2019-03-29T04:29:11.638Z,0.00
2019-03-29T04:30:11.638Z,0.00
2019-03-29T04:31:11.627Z,0.00
2019-03-29T04:32:11.602Z,0.00
2019-03-29T04:33:11.629Z,0.00
2019-03-29T04:34:11.589Z,0.00
2019-03-29T04:35:11.607Z,0.00
2019-03-29T04:36:11.559Z,0.00
2019-03-29T04:37:11.551Z,0.00
2019-03-29T04:38:11.545Z,0.00
2019-03-29T04:39:11.528Z,0.00
2019-03-29T04:40:11.538Z,0.00
2019-03-29T04:41:11.527Z,0.00
2019-03-29T04:42:11.495Z,0.00
2019-03-29T04:43:11.482Z,0.00
2019-03-29T04:44:11.472Z,0.00
2019-03-29T04:45:11.479Z,0.00
2019-03-29T04:46:11.460Z,0.00
2019-03-29T04:47:11.469Z,0.00
2019-03-29T04:48:11.439Z,4.00
2019-03-29T04:49:11.422Z,4.00
2019-03-29T04:50:11.528Z,0.00
2019-03-29T04:51:11.417Z,4.00
2019-03-29T04:52:11.466Z,0.00
2019-03-29T04:53:11.391Z,4.00
2019-03-29T04:54:11.368Z,4.00
2019-03-29T04:55:11.389Z,4.00
2019-03-29T04:56:11.350Z,4.00
2019-03-29T04:57:11.345Z,4.00
2019-03-29T04:58:11.329Z,8.00
2019-03-29T04:59:11.328Z,8.00
2019-03-29T05:00:11.321Z,8.00
2019-03-29T05:01:21.277Z,12.00
2019-03-29T05:02:11.284Z,16.00
2019-03-29T05:03:11.275Z,16.00
2019-03-29T05:04:11.266Z,16.00
2019-03-29T05:05:11.279Z,20.00
2019-03-29T05:06:11.245Z,28.00
2019-03-29T05:07:11.234Z,28.00
2019-03-29T05:08:11.224Z,32.00
2019-03-29T05:09:11.208Z,36.00
2019-03-29T05:10:21.259Z,40.00
2019-03-29T05:11:12.206Z,48.00
2019-03-29T05:12:11.179Z,52.00
2019-03-29T05:13:11.166Z,56.00
2019-03-29T05:14:11.157Z,68.00
2019-03-29T05:15:11.162Z,68.00
2019-03-29T05:16:11.138Z,76.00
2019-03-29T05:17:11.141Z,88.00
2019-03-29T05:18:11.129Z,96.00
2019-03-29T05:19:11.109Z,104.00
2019-03-29T05:20:11.113Z,112.00
2019-03-29T05:21:11.153Z,120.00
2019-03-29T05:22:11.072Z,128.00
2019-03-29T05:23:11.069Z,140.00
2019-03-29T05:24:11.061Z,156.00
2019-03-29T05:25:11.076Z,168.00
2019-03-29T05:26:11.034Z,176.00
2019-03-29T05:27:11.031Z,188.00
2019-03-29T05:28:11.010Z,200.00
2019-03-29T05:29:11.003Z,212.00
2019-03-29T05:30:11.018Z,228.00
2019-03-29T05:31:10.975Z,240.00
2019-03-29T05:32:10.969Z,256.00
2019-03-29T05:33:10.982Z,268.00
2019-03-29T05:34:10.944Z,288.00
2019-03-29T05:35:10.952Z,300.00
2019-03-29T05:36:10.930Z,320.00
2019-03-29T05:37:10.914Z,336.00
2019-03-29T05:38:10.908Z,352.00
2019-03-29T05:39:10.899Z,368.00
2019-03-29T05:40:10.914Z,388.00
2019-03-29T05:41:10.873Z,408.00
2019-03-29T05:42:10.873Z,424.00
2019-03-29T05:43:10.858Z,448.00
2019-03-29T05:44:10.862Z,464.00
2019-03-29T05:45:10.847Z,484.00
2019-03-29T05:46:10.825Z,504.00
2019-03-29T05:47:10.810Z,524.00
2019-03-29T05:48:11.839Z,548.00
2019-03-29T05:49:10.786Z,576.00
2019-03-29T05:50:10.791Z,600.00
2019-03-29T05:51:10.805Z,616.00
2019-03-29T05:52:10.754Z,640.00
2019-03-29T05:53:10.746Z,664.00
2019-03-29T05:54:10.743Z,688.00
2019-03-29T05:55:10.847Z,716.00
2019-03-29T05:56:10.729Z,736.00
2019-03-29T05:57:10.702Z,752.00
2019-03-29T05:58:10.693Z,768.00
2019-03-29T05:59:10.687Z,792.00
2019-03-29T06:00:10.678Z,804.00
2019-03-29T06:01:10.682Z,820.00
2019-03-29T06:02:10.658Z,856.00
2019-03-29T06:03:10.642Z,884.00
2019-03-29T06:04:10.627Z,904.00
2019-03-29T06:05:10.620Z,924.00
2019-03-29T06:06:10.628Z,944.00
2019-03-29T06:07:10.598Z,960.00
2019-03-29T06:08:10.589Z,980.00
2019-03-29T06:09:10.575Z,1000.00
2019-03-29T06:10:10.564Z,1020.00
2019-03-29T06:11:10.672Z,1044.00
2019-03-29T06:12:10.546Z,1068.00
2019-03-29T06:13:10.532Z,1100.00
2019-03-29T06:14:10.527Z,1132.00
2019-03-29T06:15:10.515Z,1168.00
2019-03-29T06:16:10.535Z,1188.00
2019-03-29T06:17:10.495Z,1192.00
2019-03-29T06:18:10.481Z,1188.00
2019-03-29T06:19:10.470Z,1200.00
2019-03-29T06:20:10.461Z,1212.00
2019-03-29T06:21:10.470Z,1232.00
2019-03-29T06:22:10.440Z,1244.00
2019-03-29T06:23:10.429Z,1252.00
2019-03-29T06:24:10.418Z,1260.00
2019-03-29T06:25:10.409Z,1272.00
2019-03-29T06:26:10.413Z,1296.00
2019-03-29T06:27:10.384Z,1320.00
2019-03-29T06:28:10.374Z,1344.00
2019-03-29T06:29:10.367Z,1376.00
2019-03-29T06:30:10.361Z,1428.00
2019-03-29T06:31:10.361Z,1472.00
2019-03-29T06:32:10.335Z,1496.00
2019-03-29T06:33:10.323Z,1512.00
2019-03-29T06:34:10.315Z,1524.00
2019-03-29T06:35:10.302Z,1548.00
2019-03-29T06:36:10.311Z,1608.00
2019-03-29T06:37:10.300Z,1748.00
2019-03-29T06:38:10.275Z,1900.00
2019-03-29T06:39:10.259Z,1944.00
2019-03-29T06:40:10.249Z,1848.00
2019-03-29T06:41:10.293Z,1736.00
2019-03-29T06:42:10.229Z,1676.00
2019-03-29T06:43:10.237Z,1664.00
2019-03-29T06:44:10.210Z,1656.00
2019-03-29T06:45:10.204Z,1648.00
2019-03-29T06:46:10.210Z,1672.00
2019-03-29T06:47:10.179Z,1712.00
2019-03-29T06:48:10.176Z,1744.00
2019-03-29T06:49:10.158Z,1716.00
2019-03-29T06:50:10.151Z,1756.00
2019-03-29T06:51:10.157Z,1780.00
2019-03-29T06:52:10.144Z,1788.00
2019-03-29T06:53:10.118Z,1812.00
2019-03-29T06:54:10.112Z,1828.00
2019-03-29T06:55:10.109Z,1860.00
2019-03-29T06:56:10.107Z,1912.00
2019-03-29T06:57:10.078Z,1952.00
2019-03-29T06:58:10.068Z,1972.00
2019-03-29T06:59:10.058Z,2024.00
2019-03-29T07:00:10.048Z,2084.00
2019-03-29T07:01:10.059Z,2148.00
2019-03-29T07:02:10.026Z,2208.00
2019-03-29T07:03:10.034Z,2256.00
2019-03-29T07:04:10.006Z,2300.00
2019-03-29T07:05:09.996Z,2324.00
2019-03-29T07:06:10.078Z,2328.00
2019-03-29T07:07:09.981Z,2368.00
2019-03-29T07:08:09.991Z,2392.00
2019-03-29T07:09:09.961Z,2408.00
2019-03-29T07:10:09.951Z,2460.00
2019-03-29T07:11:17.151Z,2484.00
2019-03-29T07:12:10.936Z,2552.00
2019-03-29T07:13:09.923Z,2620.00
2019-03-29T07:14:09.919Z,2716.00
2019-03-29T07:15:09.895Z,2796.00
2019-03-29T07:16:09.917Z,2912.00
2019-03-29T07:17:10.440Z,3032.00
2019-03-29T07:18:09.872Z,3056.00
2019-03-29T07:19:09.857Z,3184.00
2019-03-29T07:20:09.859Z,3264.00
2019-03-29T07:21:20.811Z,3356.00
2019-03-29T07:22:10.823Z,3420.00
2019-03-29T07:23:09.813Z,3516.00
2019-03-29T07:24:09.813Z,3560.00
2019-03-29T07:25:09.800Z,3596.00
2019-03-29T07:26:09.807Z,3632.00
2019-03-29T07:27:09.786Z,3656.00
2019-03-29T07:28:09.762Z,3680.00
2019-03-29T07:29:09.754Z,3724.00
2019-03-29T07:30:09.741Z,3768.00
2019-03-29T07:31:09.758Z,3800.00
2019-03-29T07:32:09.735Z,3820.00
2019-03-29T07:33:09.711Z,3840.00
2019-03-29T07:34:09.700Z,3864.00
2019-03-29T07:35:09.687Z,3908.00
2019-03-29T07:36:09.706Z,3948.00
2019-03-29T07:37:09.673Z,3976.00
2019-03-29T07:38:09.674Z,3988.00
2019-03-29T07:39:09.646Z,4008.00
2019-03-29T07:40:09.635Z,4036.00
2019-03-29T07:41:09.622Z,4032.00
2019-03-29T07:42:09.642Z,4056.00
2019-03-29T07:43:09.610Z,4068.00
2019-03-29T07:44:09.591Z,4036.00
2019-03-29T07:45:10.427Z,4064.00
2019-03-29T07:46:09.572Z,4080.00
2019-03-29T07:47:09.576Z,4060.00
2019-03-29T07:48:09.547Z,4052.00
2019-03-29T07:49:09.543Z,4088.00
2019-03-29T07:50:09.543Z,4104.00
2019-03-29T07:51:09.518Z,4148.00
2019-03-29T07:52:09.534Z,4176.00
2019-03-29T07:53:09.495Z,4248.00
2019-03-29T07:54:09.491Z,4288.00
2019-03-29T07:55:09.479Z,4344.00
2019-03-29T07:56:09.463Z,4432.00
2019-03-29T07:57:09.470Z,4544.00
2019-03-29T07:58:09.451Z,4612.00
2019-03-29T07:59:09.431Z,4688.00
2019-03-29T08:00:09.421Z,4816.00
2019-03-29T08:01:09.418Z,4868.00
2019-03-29T08:02:09.419Z,4856.00
2019-03-29T08:03:09.385Z,4772.00
2019-03-29T08:04:09.375Z,4860.00
2019-03-29T08:05:09.376Z,4932.00
2019-03-29T08:06:09.356Z,4996.00
2019-03-29T08:07:09.361Z,4928.00
2019-03-29T08:08:22.829Z,4844.00
2019-03-29T08:09:21.576Z,5036.00
2019-03-29T08:10:18.970Z,5228.00
2019-03-29T08:11:10.297Z,5076.00
2019-03-29T08:12:09.301Z,4768.00
2019-03-29T08:13:09.285Z,4748.00
2019-03-29T08:14:09.266Z,5068.00
2019-03-29T08:15:10.082Z,5068.00
2019-03-29T08:16:09.242Z,4876.00
2019-03-29T08:17:09.252Z,4884.00
2019-03-29T08:18:09.219Z,4680.00
2019-03-29T08:19:09.209Z,4628.00
2019-03-29T08:20:37.483Z,4736.00
2019-03-29T08:21:10.193Z,4732.00
2019-03-29T08:22:09.192Z,4660.00
2019-03-29T08:23:09.163Z,4696.00
2019-03-29T08:24:09.154Z,4756.00
2019-03-29T08:25:09.144Z,4816.00
2019-03-29T08:26:09.132Z,4936.00
2019-03-29T08:27:09.141Z,5304.00
2019-03-29T08:28:09.106Z,5952.00
2019-03-29T08:29:09.151Z,6316.00
2019-03-29T08:30:09.088Z,6616.00
2019-03-29T08:31:09.095Z,6928.00
2019-03-29T08:32:09.099Z,7112.00
2019-03-29T08:33:09.053Z,7240.00
2019-03-29T08:34:09.043Z,7388.00
2019-03-29T08:35:09.036Z,7664.00
2019-03-29T08:36:09.034Z,8128.00
2019-03-29T08:37:09.030Z,8832.00
2019-03-29T08:38:09.000Z,10080.00
2019-03-29T08:39:10.361Z,21728.00
2019-03-29T08:40:08.976Z,35648.00
2019-03-29T08:41:08.982Z,34624.00
2019-03-29T08:42:08.981Z,32640.00
2019-03-29T08:43:08.945Z,30528.00
2019-03-29T08:44:11.717Z,32000.00
2019-03-29T08:45:08.925Z,36800.00
2019-03-29T08:46:08.915Z,37600.00
2019-03-29T08:47:08.942Z,36000.00
2019-03-29T08:48:08.896Z,37952.00
2019-03-29T08:49:08.888Z,39072.00
2019-03-29T08:50:08.876Z,40480.00
2019-03-29T08:51:08.869Z,40416.00
2019-03-29T08:52:08.878Z,39200.00
2019-03-29T08:53:08.849Z,39616.00
2019-03-29T08:54:08.838Z,38752.00
2019-03-29T08:55:08.825Z,38304.00
2019-03-29T08:56:08.812Z,41024.00
2019-03-29T08:57:10.595Z,42912.00
2019-03-29T08:58:08.787Z,46848.00
2019-03-29T08:59:08.783Z,48096.00
2019-03-29T09:00:08.769Z,47296.00
2019-03-29T09:01:08.761Z,47424.00
2019-03-29T09:02:08.768Z,46912.00
2019-03-29T09:03:08.732Z,47264.00
2019-03-29T09:04:08.724Z,47104.00
2019-03-29T09:05:08.718Z,48160.00
2019-03-29T09:06:08.711Z,48704.00
2019-03-29T09:07:08.712Z,48576.00
2019-03-29T09:08:08.687Z,48224.00
2019-03-29T09:09:11.850Z,46112.00
2019-03-29T09:10:08.663Z,44096.00
2019-03-29T09:11:08.655Z,42464.00
2019-03-29T09:12:14.587Z,42784.00
2019-03-29T09:13:09.632Z,42496.00
2019-03-29T09:14:08.618Z,42688.00
2019-03-29T09:15:08.606Z,42208.00
2019-03-29T09:16:08.594Z,43104.00
2019-03-29T09:17:08.628Z,42336.00
2019-03-29T09:18:08.575Z,42432.00
2019-03-29T09:19:08.572Z,43968.00
2019-03-29T09:20:10.534Z,46016.00
2019-03-29T09:21:08.543Z,46112.00
2019-03-29T09:22:08.536Z,45152.00
2019-03-29T09:23:10.434Z,45504.00
2019-03-29T09:24:21.094Z,46400.00
2019-03-29T09:25:09.501Z,48608.00
2019-03-29T09:26:08.492Z,49152.00
2019-03-29T09:27:08.481Z,47424.00
2019-03-29T09:28:08.489Z,45344.00
2019-03-29T09:29:08.473Z,45856.00
2019-03-29T09:30:08.451Z,48704.00
2019-03-29T09:31:08.445Z,52096.00
2019-03-29T09:32:08.430Z,51776.00
2019-03-29T09:33:08.437Z,51584.00
2019-03-29T09:34:08.412Z,52832.00
2019-03-29T09:35:08.412Z,53088.00
2019-03-29T09:36:08.393Z,52832.00
2019-03-29T09:37:08.381Z,51328.00
2019-03-29T09:38:08.389Z,49536.00
2019-03-29T09:39:08.360Z,48160.00
2019-03-29T09:40:08.356Z,48544.00
2019-03-29T09:41:08.356Z,51232.00
2019-03-29T09:42:09.745Z,52480.00
2019-03-29T09:43:08.762Z,51840.00
2019-03-29T09:44:08.311Z,49984.00
2019-03-29T09:45:08.304Z,50624.00
2019-03-29T09:46:08.313Z,51680.00
2019-03-29T09:47:08.288Z,53312.00
2019-03-29T09:48:08.295Z,54784.00
2019-03-29T09:49:08.581Z,52960.00
2019-03-29T09:50:10.313Z,52512.00
2019-03-29T09:51:08.241Z,52736.00
2019-03-29T09:52:08.231Z,51968.00
2019-03-29T09:53:08.256Z,51648.00
2019-03-29T09:54:08.209Z,54528.00
2019-03-29T09:55:08.200Z,55200.00
2019-03-29T09:56:08.201Z,52768.00
2019-03-29T09:57:09.956Z,51904.00
2019-03-29T09:58:08.191Z,52384.00
2019-03-29T09:59:08.171Z,52640.00
2019-03-29T10:00:19.173Z,55072.00
2019-03-29T10:01:09.192Z,57760.00
2019-03-29T10:02:08.131Z,59584.00
2019-03-29T10:03:08.138Z,59776.00
2019-03-29T10:04:08.121Z,60064.00
2019-03-29T10:05:08.135Z,60576.00
2019-03-29T10:06:08.094Z,59136.00
2019-03-29T10:07:08.083Z,56608.00
2019-03-29T10:08:08.094Z,54016.00
2019-03-29T10:09:08.071Z,50080.00
2019-03-29T10:10:08.064Z,47264.00
2019-03-29T10:11:08.069Z,50624.00
2019-03-29T10:12:08.034Z,56864.00
2019-03-29T10:13:08.041Z,59840.00
2019-03-29T10:14:08.019Z,59872.00
2019-03-29T10:15:08.009Z,56768.00
2019-03-29T10:16:07.993Z,52736.00
2019-03-29T10:17:07.992Z,52224.00
2019-03-29T10:18:07.992Z,55264.00
2019-03-29T10:19:07.967Z,57760.00
2019-03-29T10:20:07.958Z,59200.00
2019-03-29T10:21:07.945Z,55840.00
2019-03-29T10:22:07.937Z,52384.00
2019-03-29T10:23:07.957Z,55072.00
2019-03-29T10:24:07.916Z,60192.00
2019-03-29T10:25:19.184Z,63936.00
2019-03-29T10:26:08.900Z,62752.00
2019-03-29T10:27:07.890Z,60288.00
2019-03-29T10:28:07.896Z,60448.00
2019-03-29T10:29:07.903Z,62848.00
2019-03-29T10:30:07.857Z,60672.00
2019-03-29T10:31:07.847Z,58784.00
2019-03-29T10:32:09.581Z,60032.00
2019-03-29T10:33:07.846Z,59872.00
2019-03-29T10:34:07.826Z,60032.00
2019-03-29T10:35:07.835Z,59744.00
2019-03-29T10:36:07.809Z,61856.00
2019-03-29T10:37:07.795Z,63040.00
2019-03-29T10:38:07.781Z,62176.00
2019-03-29T10:39:07.787Z,62688.00
2019-03-29T10:40:07.762Z,59872.00
2019-03-29T10:41:07.814Z,57408.00
2019-03-29T10:42:07.743Z,55040.00
2019-03-29T10:43:07.739Z,58304.00
2019-03-29T10:44:07.739Z,58592.00
2019-03-29T10:45:07.713Z,57472.00
2019-03-29T10:46:07.708Z,53984.00
2019-03-29T10:47:07.722Z,54016.00
2019-03-29T10:48:07.684Z,52256.00
2019-03-29T10:49:07.693Z,54560.00
2019-03-29T10:50:07.664Z,56032.00
2019-03-29T10:51:08.493Z,57056.00
2019-03-29T10:52:07.659Z,57440.00
2019-03-29T10:53:07.675Z,60640.00
2019-03-29T10:54:07.648Z,62016.00
2019-03-29T10:55:07.623Z,58880.00
2019-03-29T10:56:07.615Z,58656.00
2019-03-29T10:57:07.599Z,59584.00
2019-03-29T10:58:09.650Z,55744.00
2019-03-29T10:59:07.619Z,54496.00
2019-03-29T11:00:07.575Z,55648.00
2019-03-29T11:01:07.560Z,57152.00
2019-03-29T11:02:07.551Z,60448.00
2019-03-29T11:03:07.541Z,57536.00
2019-03-29T11:04:07.547Z,56480.00
2019-03-29T11:05:07.539Z,55744.00
2019-03-29T11:06:07.523Z,55424.00
2019-03-29T11:07:07.505Z,55968.00
2019-03-29T11:08:11.167Z,57824.00
2019-03-29T11:09:07.504Z,57280.00
2019-03-29T11:10:07.481Z,55616.00
2019-03-29T11:11:07.477Z,57984.00
2019-03-29T11:12:07.461Z,56192.00
2019-03-29T11:13:13.038Z,59680.00
2019-03-29T11:14:08.455Z,56864.00
2019-03-29T11:15:07.429Z,59008.00
2019-03-29T11:16:07.425Z,58752.00
2019-03-29T11:17:07.421Z,62976.00
2019-03-29T11:18:07.400Z,64320.00
2019-03-29T11:19:07.409Z,62272.00
2019-03-29T11:20:07.382Z,59168.00
2019-03-29T11:21:07.375Z,54688.00
2019-03-29T11:22:07.360Z,56256.00
2019-03-29T11:23:07.396Z,56096.00
2019-03-29T11:24:09.189Z,57536.00
2019-03-29T11:25:07.332Z,59776.00
2019-03-29T11:26:07.323Z,61664.00
2019-03-29T11:27:07.322Z,61760.00
2019-03-29T11:28:07.309Z,62784.00
2019-03-29T11:29:07.354Z,63136.00
2019-03-29T11:30:07.284Z,65152.00
2019-03-29T11:31:07.275Z,28160.00
2019-03-29T11:32:07.266Z,61920.00
2019-03-29T11:33:07.262Z,55808.00
2019-03-29T11:34:07.282Z,57440.00
2019-03-29T11:35:07.266Z,44736.00
2019-03-29T11:36:07.228Z,48320.00
2019-03-29T11:37:07.254Z,61120.00
2019-03-29T11:38:07.207Z,63584.00
2019-03-29T11:39:07.287Z,62560.00
2019-03-29T11:40:07.211Z,63712.00
2019-03-29T11:41:07.193Z,61344.00
2019-03-29T11:42:07.170Z,58112.00
2019-03-29T11:43:07.162Z,52128.00
2019-03-29T11:44:07.153Z,52032.00
2019-03-29T11:45:07.163Z,56608.00
2019-03-29T11:46:07.132Z,59872.00
2019-03-29T11:47:07.137Z,60736.00
2019-03-29T11:48:09.173Z,59392.00
2019-03-29T11:49:07.107Z,59424.00
2019-03-29T11:50:07.112Z,60832.00
2019-03-29T11:51:18.710Z,62016.00
2019-03-29T11:52:08.076Z,58304.00
2019-03-29T11:53:07.090Z,43456.00
2019-03-29T11:54:07.055Z,55968.00
2019-03-29T11:55:07.063Z,58272.00
2019-03-29T11:56:07.038Z,60992.00
2019-03-29T11:57:07.027Z,56128.00
2019-03-29T11:58:07.026Z,56064.00
2019-03-29T11:59:07.057Z,50848.00
2019-03-29T12:00:07.017Z,55136.00
2019-03-29T12:01:06.991Z,58912.00
2019-03-29T12:02:06.990Z,55840.00
2019-03-29T12:03:09.154Z,58656.00
2019-03-29T12:04:06.962Z,58560.00
2019-03-29T12:05:07.018Z,55552.00
2019-03-29T12:06:06.945Z,56864.00
2019-03-29T12:07:06.935Z,60704.00
2019-03-29T12:08:06.934Z,63808.00
2019-03-29T12:09:06.919Z,63072.00
2019-03-29T12:10:06.921Z,61152.00
2019-03-29T12:11:06.931Z,61184.00
2019-03-29T12:12:06.891Z,57056.00
2019-03-29T12:13:06.928Z,63200.00
2019-03-29T12:14:06.870Z,60768.00
2019-03-29T12:15:06.875Z,57312.00
2019-03-29T12:16:06.850Z,58112.00
2019-03-29T12:17:06.841Z,57760.00
2019-03-29T12:18:06.847Z,59008.00
2019-03-29T12:19:06.821Z,60064.00
2019-03-29T12:20:06.829Z,57472.00
2019-03-29T12:21:06.904Z,13252.00
2019-03-29T12:22:06.800Z,58848.00
2019-03-29T12:23:06.788Z,58624.00
2019-03-29T12:24:06.796Z,60384.00
2019-03-29T12:25:06.793Z,60544.00
2019-03-29T12:26:06.767Z,56736.00
2019-03-29T12:27:06.747Z,51872.00
2019-03-29T12:28:06.735Z,52736.00
2019-03-29T12:29:06.726Z,56480.00
2019-03-29T12:30:06.753Z,55232.00
2019-03-29T12:31:06.707Z,52416.00
2019-03-29T12:32:06.702Z,52704.00
2019-03-29T12:33:06.764Z,55168.00
2019-03-29T12:34:06.684Z,57888.00
2019-03-29T12:35:09.854Z,56640.00
2019-03-29T12:36:06.668Z,56608.00
2019-03-29T12:37:06.653Z,58752.00
2019-03-29T12:38:06.642Z,58464.00
2019-03-29T12:39:06.633Z,56448.00
2019-03-29T12:40:06.638Z,52256.00
2019-03-29T12:41:06.657Z,47808.00
2019-03-29T12:42:06.613Z,47840.00
2019-03-29T12:43:06.596Z,49248.00
2019-03-29T12:44:06.584Z,51072.00
2019-03-29T12:45:06.593Z,52480.00
2019-03-29T12:46:06.570Z,57216.00
2019-03-29T12:47:06.558Z,51008.00
2019-03-29T12:48:06.564Z,53600.00
2019-03-29T12:49:06.537Z,17920.00
2019-03-29T12:50:06.545Z,55072.00
2019-03-29T12:51:06.521Z,56512.00
2019-03-29T12:52:06.513Z,56224.00
2019-03-29T12:53:06.499Z,55520.00
2019-03-29T12:54:06.502Z,50176.00
2019-03-29T12:55:06.507Z,47232.00
2019-03-29T12:56:06.474Z,49600.00
2019-03-29T12:57:07.005Z,50208.00
2019-03-29T12:58:06.456Z,49280.00
2019-03-29T12:59:06.441Z,15364.00
2019-03-29T13:00:06.480Z,18272.00
2019-03-29T13:01:06.479Z,7456.00
2019-03-29T13:02:06.423Z,7848.00
2019-03-29T13:03:06.420Z,56768.00
2019-03-29T13:04:09.572Z,57568.00
2019-03-29T13:05:06.405Z,52896.00
2019-03-29T13:06:06.384Z,48672.00
2019-03-29T13:07:06.363Z,48992.00
2019-03-29T13:08:06.353Z,49248.00
2019-03-29T13:09:06.355Z,49984.00
2019-03-29T13:10:06.352Z,50560.00
2019-03-29T13:11:06.337Z,50304.00
2019-03-29T13:12:06.326Z,50304.00
2019-03-29T13:13:06.308Z,50816.00
2019-03-29T13:14:10.675Z,50400.00
2019-03-29T13:15:06.301Z,45824.00
2019-03-29T13:16:06.276Z,42656.00
2019-03-29T13:17:06.267Z,44928.00
2019-03-29T13:18:06.265Z,44640.00
2019-03-29T13:19:06.245Z,42336.00
2019-03-29T13:20:06.252Z,34272.00
2019-03-29T13:21:06.227Z,17344.00
2019-03-29T13:22:06.221Z,5220.00
2019-03-29T13:23:06.209Z,4696.00
2019-03-29T13:24:06.207Z,4500.00
2019-03-29T13:25:07.630Z,4388.00
2019-03-29T13:26:06.177Z,4324.00
2019-03-29T13:27:06.168Z,4268.00
2019-03-29T13:28:06.160Z,4316.00
2019-03-29T13:29:06.145Z,4296.00
2019-03-29T13:30:06.179Z,4236.00
2019-03-29T13:31:06.126Z,4332.00
2019-03-29T13:32:06.113Z,11368.00
2019-03-29T13:33:06.105Z,34784.00
2019-03-29T13:34:06.104Z,41248.00
2019-03-29T13:35:06.093Z,37248.00
2019-03-29T13:36:06.104Z,33760.00
2019-03-29T13:37:06.064Z,31200.00
2019-03-29T13:38:06.053Z,18816.00
2019-03-29T13:39:06.048Z,7916.00
2019-03-29T13:40:06.045Z,9268.00
2019-03-29T13:41:07.130Z,6308.00
2019-03-29T13:42:06.024Z,5232.00
2019-03-29T13:43:06.001Z,4620.00
2019-03-29T13:44:05.992Z,4276.00
2019-03-29T13:45:05.986Z,4360.00
2019-03-29T13:46:06.064Z,4528.00
2019-03-29T13:47:05.963Z,6084.00
2019-03-29T13:48:05.971Z,5768.00
2019-03-29T13:49:06.117Z,5244.00
2019-03-29T13:50:05.929Z,5040.00
2019-03-29T13:51:05.937Z,4396.00
2019-03-29T13:52:05.922Z,3008.00
2019-03-29T13:53:05.915Z,3244.00
2019-03-29T13:54:05.901Z,2960.00
2019-03-29T13:55:05.878Z,2796.00
2019-03-29T13:56:05.883Z,2716.00
2019-03-29T13:57:05.863Z,2480.00
2019-03-29T13:58:05.869Z,2252.00
2019-03-29T13:59:05.839Z,2168.00
2019-03-29T14:00:05.827Z,2136.00
2019-03-29T14:01:05.848Z,2112.00
2019-03-29T14:02:05.809Z,2080.00
2019-03-29T14:03:05.800Z,2060.00
2019-03-29T14:04:05.787Z,2112.00
2019-03-29T14:05:05.778Z,2208.00
2019-03-29T14:06:05.781Z,2092.00
2019-03-29T14:07:05.778Z,2060.00
2019-03-29T14:08:05.744Z,2064.00
2019-03-29T14:09:05.739Z,1984.00
2019-03-29T14:10:05.723Z,1916.00
2019-03-29T14:11:05.731Z,1920.00
2019-03-29T14:12:05.708Z,1976.00
2019-03-29T14:13:05.709Z,2000.00
2019-03-29T14:14:05.689Z,1936.00
2019-03-29T14:15:05.672Z,1924.00
2019-03-29T14:16:05.679Z,1892.00
2019-03-29T14:17:05.649Z,1884.00
2019-03-29T14:18:05.645Z,1868.00
2019-03-29T14:19:05.638Z,1844.00
2019-03-29T14:20:05.618Z,1816.00
2019-03-29T14:21:05.625Z,1792.00
2019-03-29T14:22:05.596Z,1764.00
2019-03-29T14:23:05.587Z,1744.00
2019-03-29T14:24:05.589Z,1728.00
2019-03-29T14:25:05.616Z,1712.00
2019-03-29T14:26:05.587Z,1696.00
2019-03-29T14:27:05.540Z,1684.00
2019-03-29T14:28:05.533Z,1668.00
2019-03-29T14:29:05.520Z,1668.00
2019-03-29T14:30:05.668Z,1672.00
2019-03-29T14:31:05.519Z,1668.00
2019-03-29T14:32:05.498Z,1660.00
2019-03-29T14:33:05.483Z,1640.00
2019-03-29T14:34:05.467Z,1616.00
2019-03-29T14:35:05.457Z,1592.00
2019-03-29T14:36:05.465Z,1572.00
2019-03-29T14:37:05.440Z,1556.00
2019-03-29T14:38:05.436Z,1544.00
2019-03-29T14:39:05.416Z,1532.00
2019-03-29T14:40:05.412Z,1524.00
2019-03-29T14:41:05.413Z,1512.00
2019-03-29T14:42:05.388Z,1504.00
2019-03-29T14:43:05.383Z,1496.00
2019-03-29T14:44:05.370Z,1492.00
2019-03-29T14:45:05.352Z,1500.00
2019-03-29T14:46:05.379Z,1508.00
2019-03-29T14:47:05.332Z,1508.00
2019-03-29T14:48:05.320Z,1512.00
2019-03-29T14:49:05.328Z,1496.00
2019-03-29T14:50:05.307Z,1476.00
2019-03-29T14:51:05.302Z,1456.00
2019-03-29T14:52:05.275Z,1436.00
2019-03-29T14:53:05.265Z,1412.00
2019-03-29T14:54:05.260Z,1384.00
2019-03-29T14:55:05.248Z,1368.00
2019-03-29T14:56:05.277Z,1356.00
2019-03-29T14:57:05.641Z,1344.00
2019-03-29T14:58:05.215Z,1336.00
2019-03-29T14:59:05.204Z,1332.00
2019-03-29T15:00:05.193Z,1324.00
2019-03-29T15:01:05.200Z,1312.00
2019-03-29T15:02:05.179Z,1300.00
2019-03-29T15:03:05.166Z,1296.00
2019-03-29T15:04:05.152Z,1288.00
2019-03-29T15:05:05.137Z,1288.00
2019-03-29T15:06:05.162Z,1288.00
2019-03-29T15:07:05.119Z,1288.00
2019-03-29T15:08:05.122Z,1284.00
2019-03-29T15:09:05.093Z,1280.00
2019-03-29T15:10:05.090Z,1272.00
2019-03-29T15:11:05.099Z,1272.00
2019-03-29T15:12:06.990Z,1276.00
2019-03-29T15:13:05.056Z,1272.00
2019-03-29T15:14:05.044Z,1272.00
2019-03-29T15:15:06.371Z,1264.00
2019-03-29T15:16:05.043Z,1264.00
2019-03-29T15:17:05.023Z,1260.00
2019-03-29T15:18:05.000Z,1256.00
2019-03-29T15:19:05.004Z,1248.00
2019-03-29T15:20:04.984Z,1244.00
2019-03-29T15:21:05.031Z,1244.00
2019-03-29T15:22:04.967Z,1232.00
2019-03-29T15:23:05.020Z,1224.00
2019-03-29T15:24:04.939Z,1212.00
2019-03-29T15:25:04.933Z,1204.00
2019-03-29T15:26:04.914Z,1192.00
2019-03-29T15:27:04.920Z,1180.00
2019-03-29T15:28:04.905Z,1172.00
2019-03-29T15:29:04.909Z,1160.00
2019-03-29T15:30:04.870Z,1152.00
2019-03-29T15:31:04.869Z,1140.00
2019-03-29T15:32:04.869Z,1132.00
2019-03-29T15:33:04.839Z,1124.00
2019-03-29T15:34:04.835Z,1116.00
2019-03-29T15:35:04.891Z,1100.00
2019-03-29T15:36:04.807Z,1088.00
2019-03-29T15:37:04.811Z,1080.00
2019-03-29T15:38:04.787Z,1076.00
2019-03-29T15:39:04.775Z,1064.00
2019-03-29T15:40:04.838Z,1056.00
2019-03-29T15:41:04.758Z,1052.00
2019-03-29T15:42:04.764Z,1048.00
2019-03-29T15:43:04.745Z,1040.00
2019-03-29T15:44:04.722Z,1040.00
2019-03-29T15:45:04.713Z,1036.00
2019-03-29T15:46:04.704Z,1028.00
2019-03-29T15:47:04.708Z,1024.00
2019-03-29T15:48:04.681Z,1020.00
2019-03-29T15:49:04.673Z,1016.00
2019-03-29T15:50:04.686Z,1012.00
2019-03-29T15:51:04.647Z,1008.00
2019-03-29T15:52:04.651Z,1004.00
2019-03-29T15:53:04.628Z,1000.00
2019-03-29T15:54:04.618Z,1000.00
2019-03-29T15:55:04.610Z,996.00
2019-03-29T15:56:04.603Z,992.00
2019-03-29T15:57:04.601Z,992.00
2019-03-29T15:58:04.571Z,984.00
2019-03-29T15:59:04.641Z,976.00
2019-03-29T16:00:04.552Z,980.00
2019-03-29T16:01:04.545Z,976.00
2019-03-29T16:02:04.569Z,968.00
2019-03-29T16:03:04.524Z,964.00
2019-03-29T16:04:04.506Z,956.00
2019-03-29T16:05:04.498Z,952.00
2019-03-29T16:06:04.486Z,944.00
2019-03-29T16:07:04.490Z,936.00
2019-03-29T16:08:04.473Z,928.00
2019-03-29T16:09:04.461Z,916.00
2019-03-29T16:10:04.445Z,908.00
2019-03-29T16:11:04.433Z,900.00
2019-03-29T16:12:04.437Z,888.00
2019-03-29T16:13:04.446Z,888.00
2019-03-29T16:14:04.397Z,872.00